Flight Track Log - Related Links

Times and Time Zones

All times are in EDT time to prevent confusion due to time zone crossing. See the SKW4664 flight status page for this flight to view local times or setup timezone preferences in your user account.

Time Position Orientation Groundspeed Altitude Reporting Facility
EDT Latitude Longitude Course Direction KTS MPH feet Rate Location/Type
Fri 12:11:17 PM 43.6503 -96.6989 47° Northeast 224 258 5,000  Level Minneapolis Center
Fri 12:12:19 PM 43.6925 -96.6214 53° Northeast 240 276 7,300 2,419 Climbing Minneapolis Center
Fri 12:13:00 PM 43.8416 -96.2544 53° Northeast  Level FlightAware Approximate
Fri 12:13:21 PM 43.7406 -96.5328 53° Northeast 263 303 10,000  Level Minneapolis Center
Fri 12:14:00 PM 43.9086 -96.1314 53° Northeast  Level FlightAware Approximate
Fri 12:14:23 PM 43.8064 -96.4075 54° Northeast 311 358 11,800  Level Minneapolis Center
Fri 12:15:00 PM 43.9766 -96.0091 52° Northeast  Level FlightAware Approximate
Fri 12:15:25 PM 43.8658 -96.2944 54° Northeast 350 403 13,900  Level Minneapolis Center
Fri 12:16:26 PM 43.9244 -96.1831 54° Northeast 360 414 16,400 1,951 Climbing Minneapolis Center
Fri 12:17:28 PM 43.9833 -96.0714 54° Northeast 362 417 17,900 1,403 Climbing Minneapolis Center
Fri 12:18:30 PM 44.0319 -95.9794 54° Northeast 372 428 19,300 1,694 Climbing Minneapolis Center
Fri 12:19:32 PM 44.1161 -95.8153 54° Northeast 379 436 21,400 1,645 Climbing Minneapolis Center
Fri 12:20:34 PM 44.1789 -95.6961 54° Northeast 383 441 22,700 774 Climbing Minneapolis Center
Fri 12:21:36 PM 44.2431 -95.5706 54° Northeast 395 455 23,000 145 Climbing Minneapolis Center
Fri 12:22:38 PM 44.3114 -95.4375 54° Northeast 411 473 23,000  Level Minneapolis Center
Fri 12:23:40 PM 44.3783 -95.3064 54° Northeast 417 480 23,000  Level Minneapolis Center
Fri 12:24:42 PM 44.4569 -95.1500 55° Northeast 414 476 23,000  Level Minneapolis Center
Fri 12:25:44 PM 44.4978 -94.9956 70° East 424 488 23,000  Level Minneapolis Center
Fri 12:26:46 PM 44.5378 -94.8406 70° East 423 487 23,000 -1,210 Level Minneapolis Center
Fri 12:27:48 PM 44.5747 -94.6817 72° East 428 493 20,500 -2,390 Descending Minneapolis Center
Fri 12:28:49 PM 44.6011 -94.5589 73° East 424 488 18,100 -2,855 Descending Minneapolis Center
Fri 12:29:52 PM 44.6431 -94.3822 71° East 398 458 14,600 -3,216 Descending Minneapolis Center
Fri 12:30:54 PM 44.6811 -94.2122 72° East 381 438 11,400 -1,742 Descending Minneapolis Center
Fri 12:31:56 PM 44.7119 -94.0736 73° East 373 429 11,000 -194 Descending Minneapolis Center
Fri 12:32:58 PM 44.7436 -93.9331 72° East 377 434 11,000  Level Minneapolis Center
Fri 12:34:00 PM 44.7747 -93.7919 73° East 379 436 11,000 -48 Level Minneapolis Center
Fri 12:35:02 PM 44.8061 -93.6511 73° East 378 435 10,900 -484 Descending Minneapolis Center
Fri 12:36:04 PM 44.8336 -93.5247 73° East 337 388 10,000 -1,113 Descending Minneapolis Center
Fri 12:37:06 PM 44.8583 -93.4094 73° East 310 357 8,600 -968 Descending Minneapolis Center
Fri 12:38:08 PM 44.8183 -93.2792 113° Southeast 302 348 8,000 -532 Descending Minneapolis Center
Fri 12:39:10 PM 44.7794 -93.1708 117° Southeast 297 342 7,500 -1,403 Descending Minneapolis Center
Fri 12:40:12 PM 44.7472 -93.0664 113° Southeast 294 338 5,100 -1,839 Descending Minneapolis Center
Fri 12:41:14 PM 44.7975 -93.0239 31° Northeast 239 275 3,700 -1,355 Descending Minneapolis Center

Login

Don't have an account? Register now (free) for customized features, flight alerts, and more!